sensor_id;sensor_type;location;lat;lon;timestamp;P1;durP1;ratioP1;P2;durP2;ratioP2
25846;SDS011;13676;50.168;8.568;2024-01-16T00:00:31;8.38;;;2.20;;
25846;SDS011;13676;50.168;8.568;2024-01-16T00:02:58;8.02;;;2.47;;
25846;SDS011;13676;50.168;8.568;2024-01-16T00:05:23;7.60;;;2.90;;
25846;SDS011;13676;50.168;8.568;2024-01-16T00:07:48;9.52;;;2.50;;
25846;SDS011;13676;50.168;8.568;2024-01-16T00:10:14;12.88;;;3.55;;
25846;SDS011;13676;50.168;8.568;2024-01-16T00:12:39;6.63;;;2.80;;
25846;SDS011;13676;50.168;8.568;2024-01-16T00:15:08;12.98;;;3.45;;
25846;SDS011;13676;50.168;8.568;2024-01-16T00:17:34;11.15;;;3.72;;
25846;SDS011;13676;50.168;8.568;2024-01-16T00:19:59;7.32;;;2.90;;
25846;SDS011;13676;50.168;8.568;2024-01-16T00:22:28;6.40;;;3.33;;
25846;SDS011;13676;50.168;8.568;2024-01-16T00:24:54;8.10;;;3.50;;
25846;SDS011;13676;50.168;8.568;2024-01-16T00:27:19;7.75;;;3.50;;
25846;SDS011;13676;50.168;8.568;2024-01-16T00:29:45;5.85;;;3.13;;
25846;SDS011;13676;50.168;8.568;2024-01-16T00:32:11;10.70;;;3.45;;
25846;SDS011;13676;50.168;8.568;2024-01-16T00:34:41;8.60;;;3.03;;
25846;SDS011;13676;50.168;8.568;2024-01-16T00:37:07;10.25;;;3.22;;
25846;SDS011;13676;50.168;8.568;2024-01-16T00:39:32;9.65;;;3.53;;
25846;SDS011;13676;50.168;8.568;2024-01-16T00:41:58;8.02;;;3.22;;
25846;SDS011;13676;50.168;8.568;2024-01-16T00:44:23;11.57;;;3.40;;
25846;SDS011;13676;50.168;8.568;2024-01-16T00:46:49;8.00;;;3.45;;
25846;SDS011;13676;50.168;8.568;2024-01-16T00:49:14;7.68;;;3.38;;
25846;SDS011;13676;50.168;8.568;2024-01-16T00:51:39;13.18;;;3.50;;
25846;SDS011;13676;50.168;8.568;2024-01-16T00:54:05;9.20;;;3.28;;
25846;SDS011;13676;50.168;8.568;2024-01-16T00:56:33;9.38;;;3.30;;
25846;SDS011;13676;50.168;8.568;2024-01-16T00:58:59;12.10;;;3.92;;
25846;SDS011;13676;50.168;8.568;2024-01-16T01:01:24;9.30;;;3.28;;
25846;SDS011;13676;50.168;8.568;2024-01-16T01:03:51;10.90;;;3.65;;
25846;SDS011;13676;50.168;8.568;2024-01-16T01:06:17;10.73;;;3.35;;
25846;SDS011;13676;50.168;8.568;2024-01-16T01:08:42;11.65;;;3.85;;
25846;SDS011;13676;50.168;8.568;2024-01-16T01:11:07;6.18;;;3.42;;
25846;SDS011;13676;50.168;8.568;2024-01-16T01:13:33;8.30;;;3.60;;
25846;SDS011;13676;50.168;8.568;2024-01-16T01:15:58;9.10;;;3.50;;
25846;SDS011;13676;50.168;8.568;2024-01-16T01:18:23;8.48;;;3.42;;
25846;SDS011;13676;50.168;8.568;2024-01-16T01:20:49;10.52;;;3.42;;
25846;SDS011;13676;50.168;8.568;2024-01-16T01:23:14;5.78;;;2.97;;
25846;SDS011;13676;50.168;8.568;2024-01-16T01:25:39;8.85;;;3.65;;
25846;SDS011;13676;50.168;8.568;2024-01-16T01:28:05;6.82;;;3.15;;
25846;SDS011;13676;50.168;8.568;2024-01-16T01:30:31;9.80;;;3.28;;
25846;SDS011;13676;50.168;8.568;2024-01-16T01:32:57;6.63;;;3.10;;
25846;SDS011;13676;50.168;8.568;2024-01-16T01:35:22;7.55;;;3.55;;
25846;SDS011;13676;50.168;8.568;2024-01-16T01:37:47;12.52;;;3.70;;
25846;SDS011;13676;50.168;8.568;2024-01-16T01:40:12;9.00;;;3.65;;
25846;SDS011;13676;50.168;8.568;2024-01-16T01:45:06;11.25;;;3.28;;
25846;SDS011;13676;50.168;8.568;2024-01-16T01:47:32;7.72;;;3.50;;
25846;SDS011;13676;50.168;8.568;2024-01-16T01:49:57;12.15;;;3.40;;
25846;SDS011;13676;50.168;8.568;2024-01-16T01:52:23;10.38;;;3.50;;
25846;SDS011;13676;50.168;8.568;2024-01-16T01:54:48;9.57;;;3.55;;
25846;SDS011;13676;50.168;8.568;2024-01-16T01:57:15;7.53;;;3.10;;
25846;SDS011;13676;50.168;8.568;2024-01-16T01:59:41;11.93;;;3.80;;
25846;SDS011;13676;50.168;8.568;2024-01-16T02:02:06;7.97;;;3.83;;
25846;SDS011;13676;50.168;8.568;2024-01-16T02:04:31;7.45;;;3.88;;
25846;SDS011;13676;50.168;8.568;2024-01-16T02:06:57;10.43;;;3.88;;
25846;SDS011;13676;50.168;8.568;2024-01-16T02:09:23;15.43;;;4.43;;
25846;SDS011;13676;50.168;8.568;2024-01-16T02:11:48;10.40;;;4.45;;
25846;SDS011;13676;50.168;8.568;2024-01-16T02:14:13;9.68;;;3.95;;
25846;SDS011;13676;50.168;8.568;2024-01-16T02:16:39;9.90;;;3.88;;
25846;SDS011;13676;50.168;8.568;2024-01-16T02:19:06;9.43;;;3.92;;
25846;SDS011;13676;50.168;8.568;2024-01-16T02:21:35;16.45;;;4.35;;
25846;SDS011;13676;50.168;8.568;2024-01-16T02:24:03;12.57;;;4.97;;
25846;SDS011;13676;50.168;8.568;2024-01-16T02:26:28;11.55;;;4.70;;
25846;SDS011;13676;50.168;8.568;2024-01-16T02:28:55;13.20;;;4.20;;
25846;SDS011;13676;50.168;8.568;2024-01-16T02:31:20;16.15;;;5.13;;
25846;SDS011;13676;50.168;8.568;2024-01-16T02:33:47;10.15;;;4.50;;
25846;SDS011;13676;50.168;8.568;2024-01-16T02:36:13;12.07;;;4.68;;
25846;SDS011;13676;50.168;8.568;2024-01-16T02:38:38;12.75;;;4.68;;
25846;SDS011;13676;50.168;8.568;2024-01-16T02:41:04;16.25;;;4.88;;
25846;SDS011;13676;50.168;8.568;2024-01-16T02:43:29;13.07;;;5.45;;
25846;SDS011;13676;50.168;8.568;2024-01-16T02:45:54;8.63;;;4.57;;
25846;SDS011;13676;50.168;8.568;2024-01-16T02:48:20;12.48;;;4.80;;
25846;SDS011;13676;50.168;8.568;2024-01-16T02:50:45;10.20;;;5.00;;
25846;SDS011;13676;50.168;8.568;2024-01-16T02:53:11;14.00;;;4.90;;
25846;SDS011;13676;50.168;8.568;2024-01-16T02:55:36;16.77;;;5.35;;
25846;SDS011;13676;50.168;8.568;2024-01-16T02:58:01;17.08;;;6.32;;
25846;SDS011;13676;50.168;8.568;2024-01-16T03:00:28;10.07;;;4.97;;
25846;SDS011;13676;50.168;8.568;2024-01-16T03:02:53;9.75;;;5.20;;
25846;SDS011;13676;50.168;8.568;2024-01-16T03:05:19;17.58;;;6.32;;
25846;SDS011;13676;50.168;8.568;2024-01-16T03:07:44;14.40;;;5.50;;
25846;SDS011;13676;50.168;8.568;2024-01-16T03:10:11;9.85;;;4.78;;
25846;SDS011;13676;50.168;8.568;2024-01-16T03:12:37;10.63;;;5.00;;
25846;SDS011;13676;50.168;8.568;2024-01-16T03:15:03;8.13;;;5.13;;
25846;SDS011;13676;50.168;8.568;2024-01-16T03:17:28;10.63;;;4.78;;
25846;SDS011;13676;50.168;8.568;2024-01-16T03:19:54;10.13;;;4.63;;
25846;SDS011;13676;50.168;8.568;2024-01-16T03:22:19;17.13;;;5.18;;
25846;SDS011;13676;50.168;8.568;2024-01-16T03:24:44;18.77;;;5.40;;
25846;SDS011;13676;50.168;8.568;2024-01-16T03:27:11;12.15;;;5.10;;
25846;SDS011;13676;50.168;8.568;2024-01-16T03:29:36;9.10;;;4.75;;
25846;SDS011;13676;50.168;8.568;2024-01-16T03:32:01;16.17;;;5.80;;
25846;SDS011;13676;50.168;8.568;2024-01-16T03:34:27;16.60;;;6.03;;
25846;SDS011;13676;50.168;8.568;2024-01-16T03:36:56;15.82;;;5.47;;
25846;SDS011;13676;50.168;8.568;2024-01-16T03:39:21;14.93;;;5.25;;
25846;SDS011;13676;50.168;8.568;2024-01-16T03:41:47;12.32;;;5.22;;
25846;SDS011;13676;50.168;8.568;2024-01-16T03:44:13;14.30;;;5.20;;
25846;SDS011;13676;50.168;8.568;2024-01-16T03:46:38;16.88;;;5.13;;
25846;SDS011;13676;50.168;8.568;2024-01-16T03:49:03;14.68;;;4.88;;
25846;SDS011;13676;50.168;8.568;2024-01-16T03:51:29;14.82;;;5.03;;
25846;SDS011;13676;50.168;8.568;2024-01-16T03:53:55;10.48;;;4.45;;
25846;SDS011;13676;50.168;8.568;2024-01-16T03:56:21;14.90;;;4.70;;
25846;SDS011;13676;50.168;8.568;2024-01-16T03:58:47;7.03;;;4.13;;
25846;SDS011;13676;50.168;8.568;2024-01-16T04:01:14;16.50;;;4.97;;
25846;SDS011;13676;50.168;8.568;2024-01-16T04:03:39;15.70;;;4.68;;
25846;SDS011;13676;50.168;8.568;2024-01-16T04:06:15;16.95;;;5.90;;
25846;SDS011;13676;50.168;8.568;2024-01-16T04:08:41;10.50;;;5.07;;
25846;SDS011;13676;50.168;8.568;2024-01-16T04:11:11;11.25;;;5.10;;
25846;SDS011;13676;50.168;8.568;2024-01-16T04:13:37;13.43;;;5.13;;
25846;SDS011;13676;50.168;8.568;2024-01-16T04:16:03;13.13;;;5.00;;
25846;SDS011;13676;50.168;8.568;2024-01-16T04:18:28;7.93;;;3.90;;
25846;SDS011;13676;50.168;8.568;2024-01-16T04:20:55;10.55;;;4.28;;
25846;SDS011;13676;50.168;8.568;2024-01-16T04:23:21;8.82;;;3.90;;
25846;SDS011;13676;50.168;8.568;2024-01-16T04:25:47;10.82;;;4.28;;
25846;SDS011;13676;50.168;8.568;2024-01-16T04:28:12;7.32;;;3.58;;
25846;SDS011;13676;50.168;8.568;2024-01-16T04:30:38;11.07;;;3.63;;
25846;SDS011;13676;50.168;8.568;2024-01-16T04:33:03;9.02;;;4.25;;
25846;SDS011;13676;50.168;8.568;2024-01-16T04:35:28;11.57;;;4.40;;
25846;SDS011;13676;50.168;8.568;2024-01-16T04:37:54;14.20;;;4.68;;
25846;SDS011;13676;50.168;8.568;2024-01-16T04:40:19;12.30;;;4.38;;
25846;SDS011;13676;50.168;8.568;2024-01-16T04:42:45;12.02;;;4.55;;
25846;SDS011;13676;50.168;8.568;2024-01-16T04:45:11;18.23;;;5.60;;
25846;SDS011;13676;50.168;8.568;2024-01-16T04:47:36;17.45;;;4.97;;
25846;SDS011;13676;50.168;8.568;2024-01-16T04:50:01;12.30;;;4.20;;
25846;SDS011;13676;50.168;8.568;2024-01-16T04:52:27;18.30;;;4.88;;
25846;SDS011;13676;50.168;8.568;2024-01-16T04:54:52;12.95;;;5.45;;
25846;SDS011;13676;50.168;8.568;2024-01-16T04:57:18;12.68;;;6.05;;
25846;SDS011;13676;50.168;8.568;2024-01-16T04:59:44;9.95;;;4.38;;
25846;SDS011;13676;50.168;8.568;2024-01-16T05:02:09;10.98;;;4.93;;
25846;SDS011;13676;50.168;8.568;2024-01-16T05:04:36;16.75;;;4.47;;
25846;SDS011;13676;50.168;8.568;2024-01-16T05:07:03;13.52;;;4.80;;
25846;SDS011;13676;50.168;8.568;2024-01-16T05:09:28;19.38;;;5.13;;
25846;SDS011;13676;50.168;8.568;2024-01-16T05:11:53;12.40;;;4.50;;
25846;SDS011;13676;50.168;8.568;2024-01-16T05:14:19;10.23;;;4.15;;
25846;SDS011;13676;50.168;8.568;2024-01-16T05:16:47;14.88;;;5.40;;
25846;SDS011;13676;50.168;8.568;2024-01-16T05:19:12;15.32;;;5.25;;
25846;SDS011;13676;50.168;8.568;2024-01-16T05:21:40;13.02;;;4.47;;
25846;SDS011;13676;50.168;8.568;2024-01-16T05:24:05;10.98;;;4.32;;
25846;SDS011;13676;50.168;8.568;2024-01-16T05:26:31;11.10;;;4.38;;
25846;SDS011;13676;50.168;8.568;2024-01-16T05:28:56;11.00;;;4.35;;
25846;SDS011;13676;50.168;8.568;2024-01-16T05:31:22;12.38;;;4.30;;
25846;SDS011;13676;50.168;8.568;2024-01-16T05:33:47;17.20;;;4.53;;
25846;SDS011;13676;50.168;8.568;2024-01-16T05:36:12;10.60;;;4.10;;
25846;SDS011;13676;50.168;8.568;2024-01-16T05:38:37;9.82;;;4.18;;
25846;SDS011;13676;50.168;8.568;2024-01-16T05:41:03;11.13;;;3.88;;
25846;SDS011;13676;50.168;8.568;2024-01-16T05:43:29;10.80;;;4.65;;
25846;SDS011;13676;50.168;8.568;2024-01-16T05:45:54;10.45;;;3.90;;
25846;SDS011;13676;50.168;8.568;2024-01-16T05:48:20;10.90;;;4.32;;
25846;SDS011;13676;50.168;8.568;2024-01-16T05:50:45;12.30;;;4.20;;
25846;SDS011;13676;50.168;8.568;2024-01-16T05:53:11;11.80;;;4.07;;
25846;SDS011;13676;50.168;8.568;2024-01-16T05:55:36;13.05;;;4.30;;
25846;SDS011;13676;50.168;8.568;2024-01-16T05:58:02;12.35;;;4.28;;
25846;SDS011;13676;50.168;8.568;2024-01-16T06:00:27;12.02;;;3.63;;
25846;SDS011;13676;50.168;8.568;2024-01-16T06:02:53;15.05;;;4.60;;
25846;SDS011;13676;50.168;8.568;2024-01-16T06:05:18;10.43;;;3.38;;
25846;SDS011;13676;50.168;8.568;2024-01-16T06:07:43;15.23;;;4.07;;
25846;SDS011;13676;50.168;8.568;2024-01-16T06:10:11;10.38;;;4.38;;
25846;SDS011;13676;50.168;8.568;2024-01-16T06:12:37;11.30;;;4.07;;
25846;SDS011;13676;50.168;8.568;2024-01-16T06:15:02;10.45;;;4.13;;
25846;SDS011;13676;50.168;8.568;2024-01-16T06:17:28;12.98;;;4.95;;
25846;SDS011;13676;50.168;8.568;2024-01-16T06:19:53;11.05;;;5.50;;
25846;SDS011;13676;50.168;8.568;2024-01-16T06:22:19;13.13;;;4.55;;
25846;SDS011;13676;50.168;8.568;2024-01-16T06:24:45;12.63;;;4.70;;
25846;SDS011;13676;50.168;8.568;2024-01-16T06:27:10;13.15;;;4.57;;
25846;SDS011;13676;50.168;8.568;2024-01-16T06:29:36;9.45;;;4.65;;
25846;SDS011;13676;50.168;8.568;2024-01-16T06:32:02;12.93;;;5.00;;
25846;SDS011;13676;50.168;8.568;2024-01-16T06:34:27;14.60;;;4.65;;
25846;SDS011;13676;50.168;8.568;2024-01-16T06:36:53;15.52;;;4.78;;
25846;SDS011;13676;50.168;8.568;2024-01-16T06:39:19;7.63;;;4.30;;
25846;SDS011;13676;50.168;8.568;2024-01-16T06:41:45;14.07;;;4.65;;
25846;SDS011;13676;50.168;8.568;2024-01-16T06:44:10;10.05;;;5.00;;
25846;SDS011;13676;50.168;8.568;2024-01-16T06:46:36;12.68;;;4.88;;
25846;SDS011;13676;50.168;8.568;2024-01-16T06:49:01;17.55;;;5.47;;
25846;SDS011;13676;50.168;8.568;2024-01-16T06:51:27;15.50;;;5.68;;
25846;SDS011;13676;50.168;8.568;2024-01-16T06:53:52;16.20;;;5.47;;
25846;SDS011;13676;50.168;8.568;2024-01-16T06:56:18;10.43;;;4.70;;
25846;SDS011;13676;50.168;8.568;2024-01-16T06:58:43;16.75;;;5.78;;
25846;SDS011;13676;50.168;8.568;2024-01-16T07:01:09;13.27;;;4.97;;
25846;SDS011;13676;50.168;8.568;2024-01-16T07:03:34;12.25;;;5.30;;
25846;SDS011;13676;50.168;8.568;2024-01-16T07:06:00;13.38;;;6.25;;
25846;SDS011;13676;50.168;8.568;2024-01-16T07:08:25;15.50;;;6.93;;
25846;SDS011;13676;50.168;8.568;2024-01-16T07:10:50;11.80;;;4.78;;
25846;SDS011;13676;50.168;8.568;2024-01-16T07:13:16;11.52;;;4.60;;
25846;SDS011;13676;50.168;8.568;2024-01-16T07:15:41;11.50;;;4.90;;
25846;SDS011;13676;50.168;8.568;2024-01-16T07:18:06;12.80;;;5.55;;
25846;SDS011;13676;50.168;8.568;2024-01-16T07:20:32;15.73;;;5.40;;
25846;SDS011;13676;50.168;8.568;2024-01-16T07:22:57;13.18;;;5.50;;
25846;SDS011;13676;50.168;8.568;2024-01-16T07:25:23;16.42;;;5.93;;
25846;SDS011;13676;50.168;8.568;2024-01-16T07:27:48;12.32;;;5.20;;
25846;SDS011;13676;50.168;8.568;2024-01-16T07:30:15;13.02;;;5.45;;
25846;SDS011;13676;50.168;8.568;2024-01-16T07:32:40;14.52;;;5.45;;
25846;SDS011;13676;50.168;8.568;2024-01-16T07:35:05;10.75;;;5.10;;
25846;SDS011;13676;50.168;8.568;2024-01-16T07:37:31;11.82;;;6.03;;
25846;SDS011;13676;50.168;8.568;2024-01-16T07:39:57;13.38;;;5.30;;
25846;SDS011;13676;50.168;8.568;2024-01-16T07:42:23;13.55;;;5.28;;
25846;SDS011;13676;50.168;8.568;2024-01-16T07:44:48;10.18;;;5.25;;
25846;SDS011;13676;50.168;8.568;2024-01-16T07:47:14;14.02;;;6.22;;
25846;SDS011;13676;50.168;8.568;2024-01-16T07:49:40;17.33;;;7.88;;
25846;SDS011;13676;50.168;8.568;2024-01-16T07:52:07;20.13;;;6.93;;
25846;SDS011;13676;50.168;8.568;2024-01-16T07:54:32;18.50;;;5.85;;
25846;SDS011;13676;50.168;8.568;2024-01-16T07:56:57;18.45;;;6.20;;
25846;SDS011;13676;50.168;8.568;2024-01-16T07:59:24;14.85;;;5.43;;
25846;SDS011;13676;50.168;8.568;2024-01-16T08:01:49;14.65;;;5.93;;
25846;SDS011;13676;50.168;8.568;2024-01-16T08:04:15;11.90;;;5.40;;
25846;SDS011;13676;50.168;8.568;2024-01-16T08:06:40;15.07;;;6.43;;
25846;SDS011;13676;50.168;8.568;2024-01-16T08:09:05;9.32;;;5.97;;
25846;SDS011;13676;50.168;8.568;2024-01-16T08:11:31;14.63;;;6.93;;
25846;SDS011;13676;50.168;8.568;2024-01-16T08:13:56;12.00;;;6.18;;
25846;SDS011;13676;50.168;8.568;2024-01-16T08:16:21;15.30;;;6.78;;
25846;SDS011;13676;50.168;8.568;2024-01-16T08:18:47;15.60;;;6.38;;
25846;SDS011;13676;50.168;8.568;2024-01-16T08:21:12;14.52;;;6.45;;
25846;SDS011;13676;50.168;8.568;2024-01-16T08:23:38;17.58;;;6.32;;
25846;SDS011;13676;50.168;8.568;2024-01-16T08:26:04;17.00;;;6.57;;
25846;SDS011;13676;50.168;8.568;2024-01-16T08:28:30;16.35;;;6.35;;
25846;SDS011;13676;50.168;8.568;2024-01-16T08:30:55;14.23;;;6.50;;
25846;SDS011;13676;50.168;8.568;2024-01-16T08:33:20;14.50;;;6.43;;
25846;SDS011;13676;50.168;8.568;2024-01-16T08:35:45;14.35;;;6.90;;
25846;SDS011;13676;50.168;8.568;2024-01-16T08:38:11;12.15;;;6.00;;
25846;SDS011;13676;50.168;8.568;2024-01-16T08:40:36;9.82;;;6.20;;
25846;SDS011;13676;50.168;8.568;2024-01-16T08:43:01;14.55;;;6.15;;
25846;SDS011;13676;50.168;8.568;2024-01-16T08:45:28;14.80;;;6.50;;
25846;SDS011;13676;50.168;8.568;2024-01-16T08:47:54;12.77;;;6.10;;
25846;SDS011;13676;50.168;8.568;2024-01-16T08:50:19;13.75;;;6.70;;
25846;SDS011;13676;50.168;8.568;2024-01-16T08:52:44;18.20;;;5.60;;
25846;SDS011;13676;50.168;8.568;2024-01-16T08:55:10;15.05;;;6.93;;
25846;SDS011;13676;50.168;8.568;2024-01-16T08:57:36;19.85;;;9.68;;
25846;SDS011;13676;50.168;8.568;2024-01-16T09:00:05;23.48;;;11.57;;
25846;SDS011;13676;50.168;8.568;2024-01-16T09:02:31;46.75;;;20.98;;
25846;SDS011;13676;50.168;8.568;2024-01-16T09:04:57;58.60;;;25.65;;
25846;SDS011;13676;50.168;8.568;2024-01-16T09:07:23;44.20;;;20.85;;
25846;SDS011;13676;50.168;8.568;2024-01-16T09:09:49;29.05;;;15.88;;
25846;SDS011;13676;50.168;8.568;2024-01-16T09:12:15;20.40;;;11.00;;
25846;SDS011;13676;50.168;8.568;2024-01-16T09:14:40;13.27;;;8.23;;
25846;SDS011;13676;50.168;8.568;2024-01-16T09:17:06;14.57;;;7.30;;
25846;SDS011;13676;50.168;8.568;2024-01-16T09:19:31;13.38;;;6.03;;
25846;SDS011;13676;50.168;8.568;2024-01-16T09:21:57;16.77;;;6.88;;
25846;SDS011;13676;50.168;8.568;2024-01-16T09:24:22;14.65;;;6.45;;
25846;SDS011;13676;50.168;8.568;2024-01-16T09:26:48;16.83;;;6.43;;
25846;SDS011;13676;50.168;8.568;2024-01-16T09:29:13;10.07;;;6.38;;
25846;SDS011;13676;50.168;8.568;2024-01-16T09:31:39;9.43;;;5.57;;
25846;SDS011;13676;50.168;8.568;2024-01-16T09:34:06;14.05;;;6.13;;
25846;SDS011;13676;50.168;8.568;2024-01-16T09:36:31;15.13;;;6.85;;
25846;SDS011;13676;50.168;8.568;2024-01-16T09:38:56;13.65;;;7.57;;
25846;SDS011;13676;50.168;8.568;2024-01-16T09:41:22;15.70;;;7.60;;
25846;SDS011;13676;50.168;8.568;2024-01-16T09:43:48;16.38;;;6.50;;
25846;SDS011;13676;50.168;8.568;2024-01-16T09:46:14;12.63;;;6.40;;
25846;SDS011;13676;50.168;8.568;2024-01-16T09:48:41;11.85;;;7.50;;
25846;SDS011;13676;50.168;8.568;2024-01-16T09:51:07;15.32;;;8.18;;
25846;SDS011;13676;50.168;8.568;2024-01-16T09:53:32;19.55;;;7.97;;
25846;SDS011;13676;50.168;8.568;2024-01-16T09:55:58;14.77;;;7.90;;
25846;SDS011;13676;50.168;8.568;2024-01-16T09:58:27;17.45;;;7.65;;
25846;SDS011;13676;50.168;8.568;2024-01-16T10:00:53;13.80;;;7.93;;
25846;SDS011;13676;50.168;8.568;2024-01-16T10:03:20;17.67;;;8.52;;
25846;SDS011;13676;50.168;8.568;2024-01-16T10:05:45;16.25;;;7.78;;
25846;SDS011;13676;50.168;8.568;2024-01-16T10:08:14;19.05;;;7.97;;
25846;SDS011;13676;50.168;8.568;2024-01-16T10:10:39;17.85;;;9.02;;
25846;SDS011;13676;50.168;8.568;2024-01-16T10:13:05;16.92;;;8.13;;
25846;SDS011;13676;50.168;8.568;2024-01-16T10:15:31;15.18;;;8.15;;
25846;SDS011;13676;50.168;8.568;2024-01-16T10:17:56;20.60;;;8.10;;
25846;SDS011;13676;50.168;8.568;2024-01-16T10:20:32;14.93;;;7.57;;
25846;SDS011;13676;50.168;8.568;2024-01-16T10:22:59;17.70;;;8.77;;
25846;SDS011;13676;50.168;8.568;2024-01-16T10:25:24;14.73;;;8.57;;
25846;SDS011;13676;50.168;8.568;2024-01-16T10:27:50;17.23;;;8.35;;
25846;SDS011;13676;50.168;8.568;2024-01-16T10:30:28;15.60;;;8.15;;
25846;SDS011;13676;50.168;8.568;2024-01-16T10:33:01;15.50;;;7.57;;
25846;SDS011;13676;50.168;8.568;2024-01-16T10:35:37;17.73;;;8.65;;
25846;SDS011;13676;50.168;8.568;2024-01-16T10:38:03;17.50;;;7.93;;
25846;SDS011;13676;50.168;8.568;2024-01-16T10:40:28;15.23;;;8.65;;
25846;SDS011;13676;50.168;8.568;2024-01-16T10:43:00;12.95;;;8.18;;
25846;SDS011;13676;50.168;8.568;2024-01-16T10:45:30;18.25;;;8.77;;
25846;SDS011;13676;50.168;8.568;2024-01-16T10:48:08;18.75;;;7.50;;
25846;SDS011;13676;50.168;8.568;2024-01-16T10:50:34;15.65;;;8.40;;
25846;SDS011;13676;50.168;8.568;2024-01-16T10:53:03;16.25;;;7.93;;
25846;SDS011;13676;50.168;8.568;2024-01-16T10:55:29;17.15;;;8.57;;
25846;SDS011;13676;50.168;8.568;2024-01-16T10:57:58;17.75;;;8.05;;
25846;SDS011;13676;50.168;8.568;2024-01-16T11:00:25;13.05;;;7.68;;
25846;SDS011;13676;50.168;8.568;2024-01-16T11:03:02;19.77;;;8.38;;
25846;SDS011;13676;50.168;8.568;2024-01-16T11:05:31;20.75;;;8.13;;
25846;SDS011;13676;50.168;8.568;2024-01-16T11:10:24;25.45;;;9.60;;
25846;SDS011;13676;50.168;8.568;2024-01-16T11:12:49;17.45;;;8.30;;
25846;SDS011;13676;50.168;8.568;2024-01-16T11:15:16;12.18;;;7.50;;
25846;SDS011;13676;50.168;8.568;2024-01-16T11:17:43;14.65;;;7.90;;
25846;SDS011;13676;50.168;8.568;2024-01-16T11:20:09;15.00;;;8.27;;
25846;SDS011;13676;50.168;8.568;2024-01-16T11:22:38;17.05;;;8.38;;
25846;SDS011;13676;50.168;8.568;2024-01-16T11:25:08;17.40;;;8.27;;
25846;SDS011;13676;50.168;8.568;2024-01-16T11:27:34;14.23;;;7.70;;
25846;SDS011;13676;50.168;8.568;2024-01-16T11:30:01;16.50;;;7.70;;
25846;SDS011;13676;50.168;8.568;2024-01-16T11:32:36;17.40;;;8.07;;
25846;SDS011;13676;50.168;8.568;2024-01-16T11:35:03;17.63;;;8.60;;
25846;SDS011;13676;50.168;8.568;2024-01-16T11:37:30;13.98;;;8.00;;
25846;SDS011;13676;50.168;8.568;2024-01-16T11:42:45;17.83;;;8.00;;
25846;SDS011;13676;50.168;8.568;2024-01-16T11:50:40;15.88;;;7.10;;
25846;SDS011;13676;50.168;8.568;2024-01-16T11:53:05;13.55;;;6.45;;
25846;SDS011;13676;50.168;8.568;2024-01-16T11:55:32;16.30;;;7.10;;
25846;SDS011;13676;50.168;8.568;2024-01-16T12:00:45;22.42;;;7.40;;
25846;SDS011;13676;50.168;8.568;2024-01-16T12:03:13;18.52;;;7.78;;
25846;SDS011;13676;50.168;8.568;2024-01-16T12:05:41;15.00;;;7.78;;
25846;SDS011;13676;50.168;8.568;2024-01-16T12:08:08;17.05;;;8.18;;
25846;SDS011;13676;50.168;8.568;2024-01-16T12:10:37;14.32;;;7.05;;
25846;SDS011;13676;50.168;8.568;2024-01-16T12:13:11;16.65;;;7.13;;
25846;SDS011;13676;50.168;8.568;2024-01-16T12:15:37;19.58;;;7.28;;
25846;SDS011;13676;50.168;8.568;2024-01-16T12:18:02;16.80;;;6.88;;
25846;SDS011;13676;50.168;8.568;2024-01-16T12:20:31;10.55;;;6.40;;
25846;SDS011;13676;50.168;8.568;2024-01-16T12:22:59;18.25;;;6.72;;
25846;SDS011;13676;50.168;8.568;2024-01-16T12:25:29;16.05;;;7.70;;
25846;SDS011;13676;50.168;8.568;2024-01-16T12:30:30;14.48;;;7.60;;
25846;SDS011;13676;50.168;8.568;2024-01-16T12:35:41;13.38;;;6.63;;
25846;SDS011;13676;50.168;8.568;2024-01-16T12:38:08;14.30;;;7.30;;
25846;SDS011;13676;50.168;8.568;2024-01-16T12:40:34;16.08;;;7.60;;
25846;SDS011;13676;50.168;8.568;2024-01-16T12:43:01;16.23;;;7.05;;
25846;SDS011;13676;50.168;8.568;2024-01-16T12:45:27;13.75;;;6.80;;
25846;SDS011;13676;50.168;8.568;2024-01-16T12:47:53;18.75;;;7.72;;
25846;SDS011;13676;50.168;8.568;2024-01-16T12:50:21;18.25;;;7.40;;
25846;SDS011;13676;50.168;8.568;2024-01-16T12:53:07;13.60;;;6.05;;
25846;SDS011;13676;50.168;8.568;2024-01-16T12:55:35;10.60;;;6.07;;
25846;SDS011;13676;50.168;8.568;2024-01-16T12:58:14;14.52;;;6.82;;
25846;SDS011;13676;50.168;8.568;2024-01-16T13:00:39;13.20;;;6.30;;
25846;SDS011;13676;50.168;8.568;2024-01-16T13:03:06;16.35;;;6.43;;
25846;SDS011;13676;50.168;8.568;2024-01-16T13:05:31;15.02;;;6.40;;
25846;SDS011;13676;50.168;8.568;2024-01-16T13:08:01;13.60;;;6.53;;
25846;SDS011;13676;50.168;8.568;2024-01-16T13:10:31;12.77;;;5.78;;
25846;SDS011;13676;50.168;8.568;2024-01-16T13:13:13;19.17;;;7.63;;
25846;SDS011;13676;50.168;8.568;2024-01-16T13:15:44;15.02;;;5.40;;
25846;SDS011;13676;50.168;8.568;2024-01-16T13:18:23;21.00;;;7.13;;
25846;SDS011;13676;50.168;8.568;2024-01-16T13:20:51;25.15;;;6.65;;
25846;SDS011;13676;50.168;8.568;2024-01-16T13:23:19;9.63;;;5.40;;
25846;SDS011;13676;50.168;8.568;2024-01-16T13:25:45;12.80;;;5.00;;
25846;SDS011;13676;50.168;8.568;2024-01-16T13:28:12;12.07;;;5.45;;
25846;SDS011;13676;50.168;8.568;2024-01-16T13:30:39;16.88;;;6.00;;
25846;SDS011;13676;50.168;8.568;2024-01-16T13:33:07;13.07;;;5.60;;
25846;SDS011;13676;50.168;8.568;2024-01-16T13:35:40;12.50;;;5.45;;
25846;SDS011;13676;50.168;8.568;2024-01-16T13:38:06;13.57;;;6.10;;
25846;SDS011;13676;50.168;8.568;2024-01-16T13:40:33;17.35;;;6.40;;
25846;SDS011;13676;50.168;8.568;2024-01-16T13:42:59;13.80;;;5.60;;
25846;SDS011;13676;50.168;8.568;2024-01-16T13:45:25;17.33;;;5.07;;
25846;SDS011;13676;50.168;8.568;2024-01-16T13:47:51;10.38;;;4.13;;
25846;SDS011;13676;50.168;8.568;2024-01-16T13:50:16;11.52;;;4.65;;
25846;SDS011;13676;50.168;8.568;2024-01-16T13:52:42;12.88;;;5.40;;
25846;SDS011;13676;50.168;8.568;2024-01-16T13:55:08;10.93;;;4.40;;
25846;SDS011;13676;50.168;8.568;2024-01-16T13:57:34;11.75;;;5.05;;
25846;SDS011;13676;50.168;8.568;2024-01-16T14:00:02;11.57;;;4.88;;
25846;SDS011;13676;50.168;8.568;2024-01-16T14:02:29;10.52;;;4.97;;
25846;SDS011;13676;50.168;8.568;2024-01-16T14:04:56;11.50;;;5.47;;
25846;SDS011;13676;50.168;8.568;2024-01-16T14:07:21;8.37;;;5.33;;
25846;SDS011;13676;50.168;8.568;2024-01-16T14:09:47;14.38;;;5.75;;
25846;SDS011;13676;50.168;8.568;2024-01-16T14:12:13;10.80;;;5.15;;
25846;SDS011;13676;50.168;8.568;2024-01-16T14:14:39;17.58;;;5.65;;
25846;SDS011;13676;50.168;8.568;2024-01-16T14:17:06;16.17;;;5.65;;
25846;SDS011;13676;50.168;8.568;2024-01-16T14:19:31;15.38;;;6.53;;
25846;SDS011;13676;50.168;8.568;2024-01-16T14:21:56;16.60;;;5.63;;
25846;SDS011;13676;50.168;8.568;2024-01-16T14:24:22;10.02;;;4.90;;
25846;SDS011;13676;50.168;8.568;2024-01-16T14:26:47;8.13;;;4.50;;
25846;SDS011;13676;50.168;8.568;2024-01-16T14:29:13;9.70;;;4.70;;
25846;SDS011;13676;50.168;8.568;2024-01-16T14:31:38;9.13;;;4.47;;
25846;SDS011;13676;50.168;8.568;2024-01-16T14:34:09;7.38;;;4.25;;
25846;SDS011;13676;50.168;8.568;2024-01-16T14:36:35;13.23;;;4.60;;
25846;SDS011;13676;50.168;8.568;2024-01-16T14:39:02;11.40;;;5.50;;
25846;SDS011;13676;50.168;8.568;2024-01-16T14:41:28;13.00;;;6.00;;
25846;SDS011;13676;50.168;8.568;2024-01-16T14:43:53;16.83;;;6.45;;
25846;SDS011;13676;50.168;8.568;2024-01-16T14:46:19;14.15;;;6.38;;
25846;SDS011;13676;50.168;8.568;2024-01-16T14:48:44;15.13;;;7.75;;
25846;SDS011;13676;50.168;8.568;2024-01-16T14:51:14;13.85;;;6.20;;